»·PEaware :: N15JG 38U-KSLC

N15JG :: 38U-KSLC

FLIGHT INFORMATION

Flight Status: Arrived
Operator: Privately registered:
United States
More flights under this callsign
Pilot: Anonymous 11047 (11047)
Aircraft: MOONEY M-20 201 202 205 220 ATS MSE
(M20P)
More flights by this aircraft type
Origin: 38U Wayne Wonderland
United States
Destination: KSLC Salt Lake City Intl
United States
More flights between these airports :: More routes between these airports
Route: +
File this flight plan on PilotEdge
Remarks:
Altitude:
(Current/Filed)
10,500ft
Speed:
(Current/Filed)
0kts
Departed: 16-May-18 07:22 AM
Arrived: 16-May-18 08:14 AM
Distance/Time
Traveled:
146nm/0:52
Distance/Time
To Go:
Arrived

Flight Plot

Page will automatically refresh every two minutes.

Flight plan parsing failed; only flown route is shown


Map Options




Map Legend


Flown Route
Filed Route
Departure Airport
Arrival Airport
Navaid (VOR, NDB)
Fix

Horizontal Profiles

Position Reports

Time Latitude Longitude Heading Altitude Ground
Speed
16-May-18 07:21 38.725208 -111.834181 357 10105ft 173kts
16-May-18 07:22 38.771858 -111.847539 337 9913ft 171kts
16-May-18 07:23 38.817380 -111.864249 337 9943ft 159kts
16-May-18 07:24 38.858354 -111.888755 347 9863ft 166kts
16-May-18 07:25 38.904162 -111.885985 3 9999ft 158kts
16-May-18 07:26 38.945863 -111.881363 5 10423ft 152kts
16-May-18 07:27 38.949929 -111.880674 6 10473ft 151kts
16-May-18 07:28 38.969944 -111.875740 13 10680ft 151kts
16-May-18 07:29 39.008374 -111.851413 47 10938ft 157kts
16-May-18 07:30 39.050152 -111.840525 350 10755ft 178kts
16-May-18 07:31 39.098611 -111.851167 344 10510ft 180kts
16-May-18 07:32 39.140251 -111.861017 346 10481ft 174kts
16-May-18 07:33 39.185617 -111.877139 339 10518ft 169kts
16-May-18 07:34 39.229844 -111.893967 347 10562ft 169kts
16-May-18 07:35 39.277278 -111.901567 345 10440ft 174kts
16-May-18 07:36 39.324452 -111.915706 340 10399ft 168kts
16-May-18 07:37 39.368941 -111.930348 356 10520ft 165kts
16-May-18 07:38 39.414586 -111.920710 12 10586ft 168kts
16-May-18 07:39 39.458689 -111.905322 20 10536ft 175kts
16-May-18 07:40 39.503775 -111.881776 19 10454ft 175kts
16-May-18 07:41 39.548578 -111.858534 22 10407ft 174kts
16-May-18 07:42 39.593751 -111.843270 1 10492ft 173kts
16-May-18 07:43 39.642424 -111.851236 348 10210ft 183kts
16-May-18 07:44 39.691553 -111.865606 351 10005ft 180kts
16-May-18 07:45 39.740660 -111.866498 5 9908ft 177kts
16-May-18 07:46 39.789503 -111.867297 357 9805ft 178kts
16-May-18 07:47 39.837021 -111.862431 7 9900ft 172kts
16-May-18 07:48 39.875257 -111.851430 16 9966ft 168kts
16-May-18 07:49 39.919263 -111.831315 22 9973ft 174kts
16-May-18 07:50 39.960856 -111.803495 32 10041ft 172kts
16-May-18 07:51 39.998585 -111.766704 42 9994ft 176kts
16-May-18 07:52 40.032056 -111.726650 44 10244ft 166kts
16-May-18 07:53 40.070160 -111.693531 14 10271ft 171kts
16-May-18 07:54 40.112052 -111.699594 349 10366ft 173kts
16-May-18 07:55 40.153024 -111.712052 347 10517ft 170kts
16-May-18 07:56 40.197633 -111.726096 341 10361ft 181kts
16-May-18 07:57 40.241527 -111.747780 338 10583ft 172kts
16-May-18 07:58 40.286006 -111.769125 343 10588ft 175kts
16-May-18 07:59 40.328529 -111.792721 321 10144ft 173kts
16-May-18 08:00 40.367512 -111.826132 337 9470ft 172kts
16-May-18 08:01 40.407399 -111.854131 322 8832ft 169kts
16-May-18 08:02 40.446709 -111.882772 349 8527ft 168kts
16-May-18 08:03 40.492125 -111.888143 356 8594ft 173kts
16-May-18 08:04 40.538109 -111.893023 358 8572ft 177kts
16-May-18 08:05 40.584949 -111.894815 357 8526ft 180kts
16-May-18 08:06 40.632884 -111.899740 354 8124ft 176kts
16-May-18 08:07 40.678867 -111.905178 353 7595ft 171kts
16-May-18 08:08 40.722379 -111.921064 341 7031ft 168kts
16-May-18 08:09 40.767311 -111.934641 348 6140ft 176kts
16-May-18 08:10 40.812623 -111.941480 8 5694ft 149kts
16-May-18 08:11 40.837353 -111.949546 258 5219ft 98kts
16-May-18 08:12 40.818276 -111.962007 177 4546ft 77kts
16-May-18 08:13 40.797042 -111.961932 176 4318ft 77kts
16-May-18 08:14 40.778505 -111.962042 180 4198ft 34kts
16-May-18 08:15 40.777108 -111.960733 95 4198ft 0kts
16-May-18 08:16 40.777113 -111.959007 78 4198ft 7kts
16-May-18 08:17 40.777244 -111.959036 270 4198ft 0kts
16-May-18 08:18 40.777244 -111.959036 270 4198ft 0kts
16-May-18 08:19 40.777244 -111.959036 270 4198ft 0kts
16-May-18 08:20 40.777244 -111.959036 270 4198ft 0kts
16-May-18 08:21 40.777244 -111.959036 270 4198ft 0kts
16-May-18 08:22 40.777244 -111.959036 270 4198ft 0kts
16-May-18 08:23 40.777244 -111.959036 270 4198ft 0kts
16-May-18 08:24 40.777244 -111.959036 270 4198ft 0kts
16-May-18 08:25 40.777244 -111.959036 270 4198ft 0kts
16-May-18 08:26 40.777244 -111.959036 270 4198ft 0kts
16-May-18 08:27 40.777244 -111.959036 270 4198ft 0kts

Navigation Log

Ident Type
Flight plan parsing failed, navigation log unavailable